Flight Track Log - Related Links

Times and Time Zones

All times are in EDT time to prevent confusion due to time zone crossing. See the ASA51 flight status page for this flight to view local times or setup timezone preferences in your user account.

Time Position Orientation Groundspeed Altitude Reporting Facility
EDT Latitude Longitude Course Direction KTS MPH feet Rate Location/Type
Mon 11:52:10 PM 71.1833 -156.0500 115° Southeast 280 322 10,900  Level Anchorage Center
Mon 11:53:10 PM 71.1667 -155.7833 101° East 330 380 13,800 3,150 Climbing Anchorage Center
Mon 11:54:00 PM 71.0672 -154.9463 108° East  Level FlightAware Approximate
Mon 11:54:10 PM 71.1333 -155.5000 110° East 350 403 17,200  Level Anchorage Center
Mon 11:55:00 PM 71.0339 -154.6319 108° East  Level FlightAware Approximate
Mon 11:55:11 PM 71.1000 -155.2167 110° East 360 414 20,100  Level Anchorage Center
Mon 11:56:00 PM 71.0000 -154.3186 108° East  Level FlightAware Approximate
Mon 11:56:11 PM 71.0667 -154.9000 108° East 400 460 22,700  Level Anchorage Center
Mon 11:57:11 PM 71.0333 -154.5667 107° East 400 460 25,400 2,500 Climbing Anchorage Center
Mon 11:58:11 PM 70.9833 -154.2333 115° Southeast 420 483 27,700 1,785 Climbing Anchorage Center
Mon 11:59:12 PM 70.9500 -153.9000 107° East 420 483 29,000 645 Climbing Anchorage Center
Tue 12:00:12 AM 70.9167 -153.5667 107° East 420 483 29,000  Level Anchorage Center
Tue 12:01:12 AM 70.8667 -153.2333 114° Southeast 420 483 29,000  Level Anchorage Center
Tue 12:02:13 AM 70.8333 -152.8833 106° East 430 495 29,000  Level Anchorage Center
Tue 12:03:13 AM 70.7833 -152.5667 116° Southeast 410 472 29,000  Level Anchorage Center
Tue 12:04:13 AM 70.7500 -152.2167 106° East 420 483 29,000  Level Anchorage Center
Tue 12:05:14 AM 70.7000 -151.9000 115° Southeast 410 472 29,000 -992 Level Anchorage Center
Tue 12:06:14 AM 70.6667 -151.5833 108° East 400 460 27,000 -2,182 Descending Anchorage Center
Tue 12:07:15 AM 70.6167 -151.2833 117° Southeast 380 437 24,600 -2,380 Descending Anchorage Center
Tue 12:08:15 AM 70.5833 -151.0000 109° East 370 426 22,200 -2,350 Descending Anchorage Center
Tue 12:09:15 AM 70.5333 -150.7167 118° Southeast 360 414 19,900 -2,331 Descending Anchorage Center
Tue 12:10:16 AM 70.5000 -150.4500 110° East 350 403 17,500 -2,231 Descending Anchorage Center
Tue 12:11:16 AM 70.4667 -150.2000 112° Southeast 340 391 15,400 -2,150 Descending Anchorage Center
Tue 12:12:16 AM 70.4333 -149.9500 112° Southeast 320 368 13,200 -2,132 Descending Anchorage Center
Tue 12:13:17 AM 70.4000 -149.7000 112° Southeast 310 357 11,100 -1,537 Descending Anchorage Center
Tue 12:14:17 AM 70.3500 -149.4833 124° Southeast 290 334 10,100 -1,140 Descending Anchorage Center
Tue 12:15:18 AM 70.3333 -149.3000 105° East 250 288 8,800 -1,339 Descending Anchorage Center
Tue 12:16:18 AM 70.2833 -149.1500 135° Southeast 270 311 7,400 -1,450 Descending Anchorage Center
Tue 12:17:18 AM 70.2167 -149.1833 190° South 260 299 5,900 -1,240 Descending Anchorage Center
Tue 12:18:19 AM 70.1500 -149.1833 180° South 230 265 4,900 -893 Descending Anchorage Center
Tue 12:19:19 AM 70.1333 -149.0500 110° East 180 207 4,100 -850 Descending Anchorage Center
Tue 12:20:19 AM 70.1500 -148.9167 70° East 170 196 3,200 -893 Descending Anchorage Center
Tue 12:21:20 AM 70.1500 -148.7833 90° East 170 196 2,300 -843 Descending Anchorage Center
Tue 12:22:20 AM 70.1667 -148.6667 67° East 120 138 1,500 -750 Descending Anchorage Center
Tue 12:23:20 AM 70.1833 -148.5833 59° Northeast 110 127 800 -694 Descending Anchorage Center
Tue 12:24:21 AM 70.1833 -148.4833 90° East 120 138 100 -689 Descending Anchorage Center

Login

Don't have an account? Register now (free) for customized features, flight alerts, and more!